Hauptseite
METAR-TAF:

METAR-TAF

Flughäfen :

Militärflugplatz Gilze-Rijen

Gilze-Rijen, Niederlande

Breite: 51-34N, Länge: 004-56E, Höhe: 15 m

Beobachtung

Neuester Wetterbericht von vor 18 Minuten, um 05:36 UTC
Wind 2 kt aus Südost
Temperatur 0°C
Luftfeuchtigkeit 100%
Luftdruck 1011 hPa
Sichtweite: 4400 m
feuchter Dunst

METAR: EHGR 170536Z AUTO 14002KT 4400 BR NCD 00/M00 Q1011 GRN

Zeit: 06:54 (05:54 UTC)


TAF: fehlend

Wetterbeobachtungen und Prognosen von mehr als 4000 Flughäfen (METAR und TAF Bericht).

Die verfügbaren Stationen werden durch gelbe und rote Markierungen auf der Karte dargestellt.

Führen Sie die Maus auf sie, um den Namen der Station zu sehen.

Darauf klicken, um die Beobachtung von Wetterbeobachtungen und Prognosen zu sehen.

Um die Karte zu ändern : klicken Sie auf den grünen Tasten mit einem schwarzen Kreuz Zum Vergrößern, auf den grünen Button mit einem Gedankenstrich zu verkleinern, oder auf die grünen Pfeile für benachbarte Karten.


METAR-TAF: